Time;durP1;ratioP1;P1;durP2;ratioP2;P2;SDS_P1;SDS_P2;PMS_P1;PMS_P2;Temp;Humidity;BMP_temperature;BMP_pressure;BME280_temperature;BME280_humidity;BME280_pressure;Samples;Min_cycle;Max_cycle;Signal;HPM_P1;HPM_P2
2022/02/28 00:01:26;;;;;;;;;;;;;;;16.86;41.96;101005.03;5076912;28;958;-61
2022/02/28 00:03:51;;;;;;;;;;;;;;;16.64;41.36;101007.16;5077491;28;954;-61
2022/02/28 00:06:17;;;;;;;;;;;;;;;16.62;43.45;101004.69;5076864;28;1910;-61
2022/02/28 00:08:43;;;;;;;;;;;;;;;17.68;40.38;101004.34;5076828;28;817;-62
2022/02/28 00:11:08;;;;;;;;;;;;;;;17.11;41.91;101003.50;5077534;28;817;-63
2022/02/28 00:13:33;;;;;;;;;;;;;;;16.82;42.18;101003.09;5076993;28;1098;-64
2022/02/28 00:15:59;;;;;;;;;;;;;;;16.67;42.27;101001.13;5076461;28;853;-65
2022/02/28 00:18:24;;;;;;;;;;;;;;;16.39;42.10;101006.75;5077057;28;817;-65
2022/02/28 00:20:50;;;;;;;;;;;;;;;16.40;43.02;100999.34;5076923;28;764;-64
2022/02/28 00:23:15;;;;;;;;;;;;;;;17.22;41.55;101007.06;5077313;28;804;-65
2022/02/28 00:25:41;;;;;;;;;;;;;;;16.86;42.08;101015.19;5076582;28;1914;-64
2022/02/28 00:28:06;;;;;;;;;;;;;;;16.66;42.57;101014.03;5077214;28;801;-64
2022/02/28 00:30:33;;;;;;;;;;;;;;;16.37;42.85;101016.38;5076433;28;905;-63
2022/02/28 00:32:59;;;;;;;;;;;;;;;16.36;42.75;101007.28;5077074;28;843;-64
2022/02/28 00:35:24;;;;;;;;;;;;;;;16.35;43.55;101013.84;5076685;28;797;-64
2022/02/28 00:37:50;;;;;;;;;;;;;;;16.69;43.04;101013.50;5109293;28;754;-64
2022/02/28 00:40:16;;;;;;;;;;;;;;;17.13;42.07;101016.94;5108933;28;807;-64
2022/02/28 00:42:41;;;;;;;;;;;;;;;17.48;41.03;101007.09;5109302;28;1120;-64
2022/02/28 00:45:07;;;;;;;;;;;;;;;17.63;40.70;101018.13;5076291;28;1981;-64
2022/02/28 00:47:32;;;;;;;;;;;;;;;17.42;40.83;101012.59;5075904;28;1021;-64
2022/02/28 00:49:58;;;;;;;;;;;;;;;17.00;41.99;101015.53;5109015;28;833;-64
2022/02/28 00:52:23;;;;;;;;;;;;;;;16.86;41.99;101021.50;5076195;28;765;-64
2022/02/28 00:54:49;;;;;;;;;;;;;;;16.52;42.52;101015.59;5076533;28;881;-64
2022/02/28 00:57:14;;;;;;;;;;;;;;;16.42;42.80;101035.59;5076601;28;937;-64
2022/02/28 00:59:39;;;;;;;;;;;;;;;16.54;43.02;101038.13;5091377;28;1097;-64
2022/02/28 01:02:05;;;;;;;;;;;;;;;16.58;43.11;101031.84;5075969;28;1036;-64
2022/02/28 01:04:30;;;;;;;;;;;;;;;16.57;43.29;101037.59;5108992;28;2002;-64
2022/02/28 01:06:56;;;;;;;;;;;;;;;16.69;42.90;101032.72;5074545;28;809;-64
2022/02/28 01:09:21;;;;;;;;;;;;;;;17.09;41.88;101031.22;5108573;28;764;-63
2022/02/28 01:11:47;;;;;;;;;;;;;;;17.34;41.34;101029.63;5108435;28;1219;-63
2022/02/28 01:14:12;;;;;;;;;;;;;;;17.48;40.84;101031.84;5075713;28;1080;-64
2022/02/28 01:16:38;;;;;;;;;;;;;;;17.13;41.37;101008.72;5075993;28;883;-63
2022/02/28 01:19:03;;;;;;;;;;;;;;;16.96;42.05;101012.50;5076407;28;825;-63
2022/02/28 01:21:28;;;;;;;;;;;;;;;16.72;42.29;101010.19;5075140;28;742;-63
2022/02/28 01:23:54;;;;;;;;;;;;;;;16.50;42.69;101013.13;5076268;28;846;-64
2022/02/28 01:26:19;;;;;;;;;;;;;;;16.38;42.74;101005.13;5075802;28;1979;-63
2022/02/28 01:28:45;;;;;;;;;;;;;;;16.45;43.25;101001.28;5075494;28;817;-64
2022/02/28 01:31:10;;;;;;;;;;;;;;;16.79;42.61;101014.59;5108419;28;1298;-64
2022/02/28 01:33:36;;;;;;;;;;;;;;;17.33;41.55;101007.91;5075996;28;861;-64
2022/02/28 01:36:01;;;;;;;;;;;;;;;17.75;40.56;101007.66;5075485;28;860;-64
2022/02/28 01:38:27;;;;;;;;;;;;;;;17.83;40.38;101019.22;5074438;28;1156;-64
2022/02/28 01:40:52;;;;;;;;;;;;;;;17.31;41.29;101010.13;5108500;28;1596;-64
2022/02/28 01:43:18;;;;;;;;;;;;;;;17.05;41.55;101004.56;5075705;28;762;-63
2022/02/28 01:45:43;;;;;;;;;;;;;;;16.69;42.14;101015.38;5075297;28;1964;-64
2022/02/28 01:48:09;;;;;;;;;;;;;;;16.40;42.56;101007.59;5073860;28;931;-63
2022/02/28 01:50:34;;;;;;;;;;;;;;;16.47;42.55;101002.69;5107833;28;1695;-63
2022/02/28 01:53:00;;;;;;;;;;;;;;;16.52;43.34;101012.84;5074540;28;1096;-63
2022/02/28 01:55:26;;;;;;;;;;;;;;;17.02;42.34;101007.84;5090955;28;1276;-63
2022/02/28 01:57:52;;;;;;;;;;;;;;;17.42;41.14;101003.53;5075961;28;793;-63
2022/02/28 02:00:18;;;;;;;;;;;;;;;17.56;40.84;101003.81;5108206;28;1111;-62
2022/02/28 02:02:45;;;;;;;;;;;;;;;17.51;41.05;101006.56;5074018;28;1126;-64
2022/02/28 02:05:10;;;;;;;;;;;;;;;17.18;41.61;101001.31;5074262;28;1901;-64
2022/02/28 02:07:36;;;;;;;;;;;;;;;16.70;42.42;100998.66;5107939;28;776;-64
2022/02/28 02:10:02;;;;;;;;;;;;;;;16.46;42.35;100997.47;5108239;28;1117;-63
2022/02/28 02:12:28;;;;;;;;;;;;;;;16.42;42.66;100995.25;5107998;28;1146;-63
2022/02/28 02:14:54;;;;;;;;;;;;;;;16.44;43.22;101000.47;5108291;28;1382;-64
2022/02/28 02:17:19;;;;;;;;;;;;;;;16.64;43.08;100988.75;5107336;28;1124;-64
2022/02/28 02:19:45;;;;;;;;;;;;;;;16.90;42.37;101002.59;5075104;28;1259;-63
2022/02/28 02:22:10;;;;;;;;;;;;;;;17.00;41.86;100986.16;5074104;28;2107;-63
2022/02/28 02:24:36;;;;;;;;;;;;;;;17.17;41.84;100983.16;5101039;28;1910;-63
2022/02/28 02:27:02;;;;;;;;;;;;;;;17.22;41.63;100979.56;5074185;28;1112;-63
2022/02/28 02:29:27;;;;;;;;;;;;;;;16.98;41.75;100980.09;5075222;28;812;-63
2022/02/28 02:31:53;;;;;;;;;;;;;;;16.74;42.58;100980.53;5109527;28;1325;-63
2022/02/28 02:34:18;;;;;;;;;;;;;;;16.60;42.52;100984.88;5111571;28;1255;-63
2022/02/28 02:36:44;;;;;;;;;;;;;;;16.58;42.99;100979.66;5111874;28;1092;-63
2022/02/28 02:39:09;;;;;;;;;;;;;;;16.79;42.26;100976.16;5111659;28;1179;-63
2022/02/28 02:41:34;;;;;;;;;;;;;;;16.92;41.95;100967.44;5077401;28;1098;-63
2022/02/28 02:44:00;;;;;;;;;;;;;;;17.10;41.61;100969.66;5111118;28;760;-62
2022/02/28 02:46:26;;;;;;;;;;;;;;;17.05;41.78;100969.66;5078521;28;1974;-62
2022/02/28 02:49:11;;;;;;;;;;;;;;;16.81;42.32;100963.00;5111370;28;1208;-63
2022/02/28 02:51:36;;;;;;;;;;;;;;;16.64;42.18;100950.31;5079229;28;923;-63
2022/02/28 02:54:02;;;;;;;;;;;;;;;16.42;42.51;100959.56;5110727;28;1472;-63
2022/02/28 02:56:28;;;;;;;;;;;;;;;16.26;43.36;100955.09;5077397;28;1302;-62
2022/02/28 02:58:53;;;;;;;;;;;;;;;16.71;42.62;100942.63;5078879;28;846;-63
2022/02/28 03:01:19;;;;;;;;;;;;;;;17.22;41.33;100946.59;5093888;28;1208;-62
2022/02/28 03:03:44;;;;;;;;;;;;;;;17.68;40.13;100926.53;5110904;28;1122;-64
2022/02/28 03:06:10;;;;;;;;;;;;;;;16.87;41.33;100939.94;5077289;28;1984;-64
2022/02/28 03:08:37;;;;;;;;;;;;;;;16.41;41.88;100924.97;5110910;28;1253;-64
2022/02/28 03:11:02;;;;;;;;;;;;;;;16.25;41.56;100917.78;5078416;28;785;-64
2022/02/28 03:13:28;;;;;;;;;;;;;;;16.16;42.14;100913.88;5078201;28;1160;-64
2022/02/28 03:15:55;;;;;;;;;;;;;;;16.35;43.18;100911.50;5110514;28;1321;-65
2022/02/28 03:18:22;;;;;;;;;;;;;;;16.84;42.33;100907.53;5110298;28;928;-65
2022/02/28 03:20:47;;;;;;;;;;;;;;;17.35;41.06;100924.09;5077799;28;892;-65
2022/02/28 03:23:13;;;;;;;;;;;;;;;17.21;41.29;100928.50;5110627;28;972;-65
2022/02/28 03:25:39;;;;;;;;;;;;;;;16.67;42.24;100930.53;5110508;28;1973;-65
2022/02/28 03:28:05;;;;;;;;;;;;;;;16.38;42.03;100933.75;5110460;28;1322;-65
2022/02/28 03:30:30;;;;;;;;;;;;;;;16.21;42.50;100936.69;5077949;28;855;-65
2022/02/28 03:32:56;;;;;;;;;;;;;;;16.15;42.95;100928.72;5076500;28;1346;-65
2022/02/28 03:35:22;;;;;;;;;;;;;;;16.45;43.00;100932.69;5077388;28;887;-65
2022/02/28 03:37:47;;;;;;;;;;;;;;;17.37;40.80;100937.56;5076764;28;1270;-65
2022/02/28 03:43:38;;;;;;;;;;;;;;;16.51;42.04;100937.91;5072477;28;604;-64
2022/02/28 03:46:12;;;;;;;;;;;;;;;16.24;42.76;100929.84;5075939;28;1905;-64
2022/02/28 03:48:56;;;;;;;;;;;;;;;16.33;43.01;100927.44;5077315;28;741;-64
2022/02/28 03:51:35;;;;;;;;;;;;;;;16.56;42.47;100931.63;5104112;28;1386;-65
2022/02/28 03:54:01;;;;;;;;;;;;;;;16.80;41.91;100920.16;5092953;28;1113;-63
2022/02/28 03:56:27;;;;;;;;;;;;;;;16.99;41.60;100928.75;5077564;28;844;-63
2022/02/28 03:58:52;;;;;;;;;;;;;;;17.39;40.54;100924.34;5109870;28;1107;-63
2022/02/28 04:01:18;;;;;;;;;;;;;;;17.10;41.05;100931.22;5077931;28;853;-63
2022/02/28 04:03:49;;;;;;;;;;;;;;;16.67;41.72;100925.06;5109625;28;1380;-63
2022/02/28 04:06:15;;;;;;;;;;;;;;;16.38;42.07;100922.78;5076991;28;1968;-64
2022/02/28 04:08:40;;;;;;;;;;;;;;;16.40;42.95;100904.13;5110209;28;1089;-62
2022/02/28 04:11:06;;;;;;;;;;;;;;;16.67;42.22;100916.81;5076869;28;777;-63
2022/02/28 04:13:31;;;;;;;;;;;;;;;16.99;41.54;100910.31;5077266;28;996;-65
2022/02/28 04:15:56;;;;;;;;;;;;;;;17.27;40.59;100913.63;5109488;28;1120;-65
2022/02/28 04:18:22;;;;;;;;;;;;;;;17.54;40.05;100905.09;5109413;28;1320;-63
2022/02/28 04:21:06;;;;;;;;;;;;;;;17.24;40.50;100903.19;5077120;28;843;-62
2022/02/28 04:23:31;;;;;;;;;;;;;;;16.90;41.34;100907.28;5109504;28;1141;-62
2022/02/28 04:25:58;;;;;;;;;;;;;;;16.67;41.07;100908.56;5108890;28;1901;-60
2022/02/28 04:28:24;;;;;;;;;;;;;;;16.38;42.00;100905.47;5109772;28;1200;-61
2022/02/28 04:30:50;;;;;;;;;;;;;;;16.59;42.12;100915.44;5075417;28;1386;-61
2022/02/28 04:33:15;;;;;;;;;;;;;;;16.90;41.45;100909.19;5075379;28;1142;-61
2022/02/28 04:35:41;;;;;;;;;;;;;;;17.18;41.07;100912.53;5076586;28;786;-64
2022/02/28 04:38:07;;;;;;;;;;;;;;;17.58;39.98;100899.88;5075312;28;1340;-64
2022/02/28 04:40:34;;;;;;;;;;;;;;;17.22;40.47;100914.47;5109046;28;1309;-61
2022/02/28 04:43:02;;;;;;;;;;;;;;;16.82;41.56;100906.97;5109140;28;1806;-62
2022/02/28 04:45:28;;;;;;;;;;;;;;;16.59;41.75;100904.47;5108552;28;2032;-62
2022/02/28 04:47:54;;;;;;;;;;;;;;;16.51;42.06;100904.13;5075350;28;1300;-61
2022/02/28 04:50:29;;;;;;;;;;;;;;;16.87;41.50;100906.97;5076385;28;863;-58
2022/02/28 04:52:55;;;;;;;;;;;;;;;17.23;40.63;100907.84;5075317;28;1180;-60
2022/02/28 04:55:22;;;;;;;;;;;;;;;17.60;39.94;100897.69;5107428;28;1137;-59
2022/02/28 04:57:49;;;;;;;;;;;;;;;17.70;39.44;100897.66;5075295;28;1121;-60
2022/02/28 05:00:34;;;;;;;;;;;;;;;17.15;40.47;100891.91;5102581;28;994;-61
2022/02/28 05:03:00;;;;;;;;;;;;;;;16.67;41.47;100905.84;5108338;28;1467;-60
2022/02/28 05:05:26;;;;;;;;;;;;;;;16.54;41.93;100917.34;5108700;28;1968;-61
2022/02/28 05:07:52;;;;;;;;;;;;;;;16.54;42.04;100909.13;5109035;28;1268;-62
2022/02/28 05:10:17;;;;;;;;;;;;;;;16.79;41.74;100905.59;5076154;28;805;-62
2022/02/28 05:12:43;;;;;;;;;;;;;;;17.30;40.71;100926.00;5108705;28;1236;-66
2022/02/28 05:15:10;;;;;;;;;;;;;;;17.70;39.64;100914.16;5108031;28;946;-66
2022/02/28 05:17:37;;;;;;;;;;;;;;;17.68;39.47;100905.34;5074559;28;1099;-66
2022/02/28 05:20:03;;;;;;;;;;;;;;;17.27;40.24;100924.63;5076256;28;853;-64
2022/02/28 05:22:32;;;;;;;;;;;;;;;16.88;40.97;100892.16;5074727;28;1130;-61
2022/02/28 05:24:57;;;;;;;;;;;;;;;16.65;41.43;100910.78;5074768;28;1901;-61
2022/02/28 05:27:23;;;;;;;;;;;;;;;16.48;41.80;100893.69;5108267;28;1447;-61
2022/02/28 05:29:48;;;;;;;;;;;;;;;16.44;42.38;100890.69;5108552;28;1237;-62
2022/02/28 05:32:16;;;;;;;;;;;;;;;16.88;41.14;100887.50;5108264;28;1149;-63
2022/02/28 05:34:54;;;;;;;;;;;;;;;17.27;40.17;100894.41;5075658;28;728;-63
2022/02/28 05:37:31;;;;;;;;;;;;;;;17.55;39.57;100889.44;5102375;28;1287;-63
2022/02/28 05:39:58;;;;;;;;;;;;;;;17.67;39.06;100898.22;5091002;28;1243;-63
2022/02/28 05:42:30;;;;;;;;;;;;;;;17.32;40.03;100872.41;5108390;28;1557;-62
2022/02/28 05:44:56;;;;;;;;;;;;;;;16.99;40.22;100882.84;5108467;28;1910;-65
2022/02/28 05:47:22;;;;;;;;;;;;;;;16.66;40.74;100898.72;5107654;28;1312;-65
2022/02/28 05:49:50;;;;;;;;;;;;;;;16.55;41.15;100902.50;5108426;28;1313;-65
2022/02/28 05:52:16;;;;;;;;;;;;;;;16.48;41.93;100890.97;5075483;28;801;-64
2022/02/28 05:54:41;;;;;;;;;;;;;;;16.99;40.95;100904.81;5076003;28;796;-64
2022/02/28 05:57:06;;;;;;;;;;;;;;;17.42;39.63;100902.63;5075455;28;808;-63
2022/02/28 05:59:32;;;;;;;;;;;;;;;17.55;39.24;100892.19;5076249;28;765;-61
2022/02/28 06:01:58;;;;;;;;;;;;;;;16.77;40.54;100899.53;5075144;28;1175;-60
2022/02/28 06:04:23;;;;;;;;;;;;;;;16.53;40.82;100919.25;5075314;28;897;-61
2022/02/28 06:06:48;;;;;;;;;;;;;;;16.35;41.25;100906.81;5077057;28;1910;-62
2022/02/28 06:09:14;;;;;;;;;;;;;;;16.49;41.86;100906.34;5079785;28;746;-61
2022/02/28 06:11:39;;;;;;;;;;;;;;;16.91;40.72;100919.09;5079459;28;758;-66
2022/02/28 06:14:11;;;;;;;;;;;;;;;17.18;40.31;100920.75;5076235;28;1599;-68
2022/02/28 06:16:38;;;;;;;;;;;;;;;17.36;39.67;100923.00;5058125;28;850;-66
2022/02/28 06:19:04;;;;;;;;;;;;;;;16.96;40.26;100943.84;5058794;28;841;-65
2022/02/28 06:21:29;;;;;;;;;;;;;;;16.59;40.90;100945.63;5059808;28;1048;-65
2022/02/28 06:23:55;;;;;;;;;;;;;;;16.39;41.50;100953.78;5059196;28;834;-64
2022/02/28 06:26:20;;;;;;;;;;;;;;;16.63;41.35;100940.41;5058766;28;1971;-61
2022/02/28 06:28:46;;;;;;;;;;;;;;;16.90;40.61;100950.41;5058261;28;1593;-62
2022/02/28 06:31:11;;;;;;;;;;;;;;;17.28;40.09;100949.09;5058305;28;777;-62
2022/02/28 06:33:39;;;;;;;;;;;;;;;17.54;39.27;100959.25;5058562;28;937;-63
2022/02/28 06:36:04;;;;;;;;;;;;;;;17.15;39.97;100957.03;5059178;28;790;-61
2022/02/28 06:38:30;;;;;;;;;;;;;;;16.72;40.66;100955.28;5058819;28;990;-60
2022/02/28 06:40:55;;;;;;;;;;;;;;;16.53;40.93;100962.34;5059028;28;861;-66
2022/02/28 06:43:21;;;;;;;;;;;;;;;16.39;41.52;100968.31;5058809;28;822;-64
2022/02/28 06:45:47;;;;;;;;;;;;;;;16.54;41.28;100972.25;5058792;28;1914;-64
2022/02/28 06:48:12;;;;;;;;;;;;;;;16.65;41.03;100965.69;5058696;28;761;-63
2022/02/28 06:50:38;;;;;;;;;;;;;;;16.89;40.72;100976.22;5058732;28;857;-64
2022/02/28 06:53:03;;;;;;;;;;;;;;;17.19;39.76;100971.88;5058513;28;834;-64
2022/02/28 06:55:29;;;;;;;;;;;;;;;17.39;39.42;100987.56;5058483;28;897;-64
2022/02/28 06:57:54;;;;;;;;;;;;;;;17.56;39.17;100968.06;5058438;28;927;-64
2022/02/28 07:00:19;;;;;;;;;;;;;;;17.50;39.39;100974.66;5058131;28;892;-66
2022/02/28 07:03:12;;;;;;;;;;;;;;;17.19;39.90;100977.38;5057735;28;1138;-65
2022/02/28 07:05:38;;;;;;;;;;;;;;;16.70;40.74;101001.38;5058874;28;1992;-64
2022/02/28 07:08:04;;;;;;;;;;;;;;;16.57;40.72;101024.69;5058150;28;832;-64
2022/02/28 07:10:29;;;;;;;;;;;;;;;16.51;40.95;100990.06;5058222;28;894;-65
2022/02/28 07:12:54;;;;;;;;;;;;;;;16.89;40.11;101020.19;5058024;28;956;-62
2022/02/28 07:15:20;;;;;;;;;;;;;;;17.36;39.13;100997.22;5066729;28;1231;-65
2022/02/28 07:17:46;;;;;;;;;;;;;;;17.58;38.18;100987.84;5077343;28;1199;-65
2022/02/28 07:20:12;;;;;;;;;;;;;;;17.65;38.37;100982.91;5078685;28;1102;-66
2022/02/28 07:22:37;;;;;;;;;;;;;;;17.40;38.54;100972.72;5078052;28;805;-67
2022/02/28 07:25:03;;;;;;;;;;;;;;;16.87;39.56;100972.88;5078565;28;1991;-67
2022/02/28 07:27:28;;;;;;;;;;;;;;;16.73;39.93;100984.41;5077976;28;1302;-67
2022/02/28 07:29:54;;;;;;;;;;;;;;;16.68;40.34;100978.88;5078260;28;990;-66
2022/02/28 07:32:19;;;;;;;;;;;;;;;16.73;40.26;100984.41;5077780;28;863;-64
2022/02/28 07:34:45;;;;;;;;;;;;;;;16.86;40.04;100965.75;5078120;28;761;-67
2022/02/28 07:37:10;;;;;;;;;;;;;;;17.08;39.42;100974.63;5078207;28;868;-63
2022/02/28 07:39:35;;;;;;;;;;;;;;;17.47;38.62;100976.03;5078390;28;766;-64
2022/02/28 07:42:01;;;;;;;;;;;;;;;17.31;38.74;100975.19;5078231;28;801;-65
2022/02/28 07:44:27;;;;;;;;;;;;;;;16.75;40.11;100975.88;5078432;28;841;-63
2022/02/28 07:46:53;;;;;;;;;;;;;;;16.51;40.30;100978.25;5077786;28;1882;-63
2022/02/28 07:49:18;;;;;;;;;;;;;;;16.43;40.75;100979.59;5078070;28;729;-62
2022/02/28 07:51:44;;;;;;;;;;;;;;;16.68;40.33;100980.81;5077130;28;1006;-65
2022/02/28 07:54:10;;;;;;;;;;;;;;;17.04;39.68;100981.75;5077298;28;1254;-64
2022/02/28 07:56:35;;;;;;;;;;;;;;;17.26;39.00;100995.28;5077702;28;876;-66
2022/02/28 07:59:01;;;;;;;;;;;;;;;17.05;39.45;100972.41;5076978;28;853;-66
2022/02/28 08:01:27;;;;;;;;;;;;;;;16.64;40.16;100986.00;5077237;28;899;-67
2022/02/28 08:03:52;;;;;;;;;;;;;;;16.50;40.45;100977.44;5076795;28;1541;-64
2022/02/28 08:06:18;;;;;;;;;;;;;;;16.38;40.79;100980.41;5079732;28;1913;-63
2022/02/28 08:08:43;;;;;;;;;;;;;;;16.42;40.85;100992.50;5077335;28;1142;-65
2022/02/28 08:11:08;;;;;;;;;;;;;;;16.89;40.14;100990.78;5076763;28;1373;-63
2022/02/28 08:13:34;;;;;;;;;;;;;;;17.01;39.63;100996.06;5083359;28;1338;-64
2022/02/28 08:16:01;;;;;;;;;;;;;;;16.94;39.47;101000.94;5077019;28;1645;-65
2022/02/28 08:18:26;;;;;;;;;;;;;;;17.01;39.38;100993.31;5077462;28;817;-65
2022/02/28 08:20:51;;;;;;;;;;;;;;;16.87;39.93;100995.69;5076895;28;1286;-66
2022/02/28 08:23:17;;;;;;;;;;;;;;;16.65;40.09;101012.38;5078284;28;1596;-64
2022/02/28 08:25:44;;;;;;;;;;;;;;;16.72;40.01;101003.91;5079637;28;1898;-64
2022/02/28 08:28:10;;;;;;;;;;;;;;;16.64;40.30;101005.22;5081206;28;1373;-64
2022/02/28 08:30:36;;;;;;;;;;;;;;;16.68;39.99;101003.59;5075513;28;1508;-64
2022/02/28 08:33:01;;;;;;;;;;;;;;;16.86;40.08;101005.03;5076756;28;1348;-61
2022/02/28 08:35:27;;;;;;;;;;;;;;;16.89;39.80;101003.69;5075586;28;1263;-63
2022/02/28 08:37:53;;;;;;;;;;;;;;;17.41;38.96;101018.38;5075994;28;1365;-63
2022/02/28 08:40:18;;;;;;;;;;;;;;;17.20;39.18;101014.75;5075679;28;1259;-64
2022/02/28 08:42:44;;;;;;;;;;;;;;;16.84;40.00;101011.88;5075320;28;1178;-65
2022/02/28 08:45:09;;;;;;;;;;;;;;;16.56;40.07;101011.22;5076098;28;1959;-64
2022/02/28 08:47:35;;;;;;;;;;;;;;;16.38;40.41;101004.28;5075001;28;1344;-63
2022/02/28 08:50:01;;;;;;;;;;;;;;;16.21;41.17;101004.47;5078167;28;1273;-63
2022/02/28 08:52:27;;;;;;;;;;;;;;;16.46;41.11;101011.19;5076253;28;1234;-64
2022/02/28 08:54:52;;;;;;;;;;;;;;;17.72;38.22;101019.19;5075807;28;1262;-65
2022/02/28 08:57:18;;;;;;;;;;;;;;;17.06;39.38;101009.78;5074265;28;1296;-64
2022/02/28 08:59:43;;;;;;;;;;;;;;;16.26;40.37;101007.25;5075157;28;1239;-65
2022/02/28 09:02:09;;;;;;;;;;;;;;;16.21;40.54;101013.50;5083448;28;1297;-62
2022/02/28 09:04:34;;;;;;;;;;;;;;;16.15;41.73;101013.75;5077055;28;1898;-63
2022/02/28 09:07:00;;;;;;;;;;;;;;;16.74;40.91;101013.50;5074759;28;1530;-61
2022/02/28 09:09:25;;;;;;;;;;;;;;;17.52;39.08;101014.53;5075536;28;1254;-63
2022/02/28 09:11:51;;;;;;;;;;;;;;;16.96;39.61;101020.75;5077476;28;1618;-64
2022/02/28 09:14:17;;;;;;;;;;;;;;;16.38;40.55;101015.25;5080260;28;1217;-62
2022/02/28 09:16:42;;;;;;;;;;;;;;;16.23;40.37;101002.28;5074556;28;1200;-62
2022/02/28 09:19:07;;;;;;;;;;;;;;;16.07;41.21;101017.81;5072429;28;1253;-64
2022/02/28 09:21:33;;;;;;;;;;;;;;;16.31;41.25;101014.66;5079139;28;1640;-62
2022/02/28 09:23:58;;;;;;;;;;;;;;;16.47;41.13;101026.56;5075733;28;1234;-66
2022/02/28 09:26:24;;;;;;;;;;;;;;;16.64;40.78;101029.13;5074560;28;1979;-64
2022/02/28 09:28:49;;;;;;;;;;;;;;;16.80;40.67;101024.50;5075796;28;1267;-64
2022/02/28 09:31:15;;;;;;;;;;;;;;;17.48;39.18;101004.34;5082140;28;1376;-65
2022/02/28 09:33:40;;;;;;;;;;;;;;;16.98;39.83;101015.78;5076086;28;1688;-62
2022/02/28 09:36:07;;;;;;;;;;;;;;;16.49;40.52;101011.47;5062655;28;1621;-68
2022/02/28 09:38:35;;;;;;;;;;;;;;;16.15;40.88;101008.28;5066177;28;1546;-61
2022/02/28 09:41:01;;;;;;;;;;;;;;;16.09;41.52;101012.91;5071928;28;1443;-67
2022/02/28 09:43:45;;;;;;;;;;;;;;;16.36;41.81;101007.28;5075300;28;1458;-65
2022/02/28 09:46:29;;;;;;;;;;;;;;;16.91;40.71;101005.09;5073482;28;1964;-62
2022/02/28 09:49:13;;;;;;;;;;;;;;;17.29;39.47;101002.13;5092197;28;1243;-66
2022/02/28 09:51:57;;;;;;;;;;;;;;;16.65;41.05;100993.16;5075736;28;1304;-67
2022/02/28 09:54:28;;;;;;;;;;;;;;;16.38;41.53;100987.81;5074252;28;1514;-64
2022/02/28 09:57:15;;;;;;;;;;;;;;;16.12;41.96;100992.31;5073964;28;1045;-67
2022/02/28 10:00:06;;;;;;;;;;;;;;;16.18;41.87;100972.06;5080561;28;1438;-64
2022/02/28 10:02:40;;;;;;;;;;;;;;;16.30;41.89;100982.81;5074360;28;1142;-63
2022/02/28 10:05:07;;;;;;;;;;;;;;;16.71;40.77;100977.53;5071317;28;1906;-65
2022/02/28 10:07:33;;;;;;;;;;;;;;;17.56;39.12;100988.13;5073895;28;1163;-65
2022/02/28 10:10:07;;;;;;;;;;;;;;;17.15;39.41;100988.09;5079185;28;1300;-67
2022/02/28 10:12:33;;;;;;;;;;;;;;;16.52;40.03;100999.13;5073793;28;1373;-65
2022/02/28 10:15:02;;;;;;;;;;;;;;;16.22;40.25;100984.16;5072295;28;1386;-67
2022/02/28 10:17:39;;;;;;;;;;;;;;;16.14;41.38;100981.94;5079107;28;1354;-64
2022/02/28 10:20:12;;;;;;;;;;;;;;;16.42;41.53;100984.28;5076633;28;1649;-64
2022/02/28 10:22:37;;;;;;;;;;;;;;;16.52;41.28;100975.25;5081879;28;1395;-60
2022/02/28 10:25:03;;;;;;;;;;;;;;;16.69;40.71;100969.56;5105153;28;1906;-65
2022/02/28 10:28:10;;;;;;;;;;;;;;;17.01;39.90;100976.81;5071843;28;1307;-64
2022/02/28 10:31:03;;;;;;;;;;;;;;;17.09;39.74;100972.69;5074086;28;1288;-64
2022/02/28 10:33:54;;;;;;;;;;;;;;;16.86;40.43;100963.03;5066230;28;1497;-61
2022/02/28 10:36:38;;;;;;;;;;;;;;;16.42;40.64;100973.31;5073228;28;1197;-65
2022/02/28 10:39:10;;;;;;;;;;;;;;;16.20;41.05;100956.16;5073760;28;1159;-63
2022/02/28 10:41:38;;;;;;;;;;;;;;;16.27;41.45;100958.66;5074209;28;1157;-63
2022/02/28 10:44:04;;;;;;;;;;;;;;;16.28;42.14;100954.84;5075299;28;1214;-63
2022/02/28 10:46:34;;;;;;;;;;;;;;;16.42;41.47;100940.38;5078656;28;1922;-63
2022/02/28 10:49:07;;;;;;;;;;;;;;;16.51;41.59;100951.66;5077491;28;1443;-63
2022/02/28 10:51:42;;;;;;;;;;;;;;;16.86;40.71;100954.78;5074701;28;1154;-63
2022/02/28 10:54:28;;;;;;;;;;;;;;;17.16;39.91;100940.28;5077210;28;1196;-62
2022/02/28 10:57:00;;;;;;;;;;;;;;;17.14;40.14;100937.00;5080507;28;1788;-63
2022/02/28 10:59:26;;;;;;;;;;;;;;;16.60;41.20;100935.47;5078460;28;1188;-63
2022/02/28 11:01:52;;;;;;;;;;;;;;;16.50;41.44;100946.44;5080441;28;1372;-62
2022/02/28 11:04:37;;;;;;;;;;;;;;;16.34;41.68;100932.66;5081299;28;1350;-65
2022/02/28 11:07:03;;;;;;;;;;;;;;;16.53;41.71;100945.88;5076061;28;1312;-62
2022/02/28 11:09:49;;;;;;;;;;;;;;;17.17;40.39;100935.63;5077279;28;1397;-60
2022/02/28 11:12:17;;;;;;;;;;;;;;;16.98;40.28;100933.38;5074133;28;1313;-63
2022/02/28 11:14:47;;;;;;;;;;;;;;;16.38;41.28;100950.22;5080456;28;1356;-63
2022/02/28 11:17:14;;;;;;;;;;;;;;;16.24;41.36;100954.53;5077397;28;1356;-62
2022/02/28 11:19:39;;;;;;;;;;;;;;;16.12;42.37;100951.16;5107016;28;1174;-60
2022/02/28 11:22:05;;;;;;;;;;;;;;;16.48;41.67;100948.59;5104698;28;1403;-63
2022/02/28 11:24:30;;;;;;;;;;;;;;;16.95;40.95;100961.41;5077601;28;1364;-63
2022/02/28 11:26:56;;;;;;;;;;;;;;;17.04;40.32;100951.53;5107862;28;1913;-66
2022/02/28 11:29:21;;;;;;;;;;;;;;;16.66;41.09;100958.28;5083290;28;1530;-65
2022/02/28 11:31:51;;;;;;;;;;;;;;;16.36;41.54;100965.31;5077318;28;1365;-63
2022/02/28 11:34:23;;;;;;;;;;;;;;;16.16;42.04;100974.25;5075129;28;1192;-65
2022/02/28 11:36:49;;;;;;;;;;;;;;;16.17;42.35;100970.41;5075729;28;1137;-65
2022/02/28 11:39:15;;;;;;;;;;;;;;;16.67;41.33;100974.47;5084094;28;1487;-64
2022/02/28 11:41:40;;;;;;;;;;;;;;;16.96;40.55;100982.28;5078109;28;1385;-65
2022/02/28 11:44:06;;;;;;;;;;;;;;;16.97;40.16;100989.44;5071038;28;1166;-64
2022/02/28 11:46:31;;;;;;;;;;;;;;;16.46;41.27;101009.25;5076827;28;1914;-65
2022/02/28 11:48:59;;;;;;;;;;;;;;;16.24;41.78;100998.44;5079294;28;1565;-63
2022/02/28 11:51:25;;;;;;;;;;;;;;;16.25;41.70;101005.59;5076266;28;1212;-65
2022/02/28 11:53:51;;;;;;;;;;;;;;;16.24;42.15;101015.75;5077853;28;738;-65
2022/02/28 11:56:17;;;;;;;;;;;;;;;16.63;41.35;101022.78;5083115;28;1372;-65
2022/02/28 11:58:55;;;;;;;;;;;;;;;17.00;40.56;101038.34;5078046;28;1526;-65
2022/02/28 12:01:27;;;;;;;;;;;;;;;17.02;40.42;101036.13;5110087;27;1591;-66
2022/02/28 12:04:13;;;;;;;;;;;;;;;16.64;41.08;101029.94;5071025;28;861;-63
2022/02/28 12:06:51;;;;;;;;;;;;;;;16.50;41.41;101042.50;5073709;28;1909;-64
2022/02/28 12:09:41;;;;;;;;;;;;;;;16.51;41.43;101039.50;5082817;28;1506;-64
2022/02/28 12:12:13;;;;;;;;;;;;;;;16.28;41.54;101050.88;5077199;28;1439;-65
2022/02/28 12:15:02;;;;;;;;;;;;;;;16.15;42.14;101054.91;5079186;28;1218;-65
2022/02/28 12:17:33;;;;;;;;;;;;;;;16.11;42.55;101053.78;5041938;28;1856;-66
2022/02/28 12:20:14;;;;;;;;;;;;;;;16.40;41.97;101066.03;5037738;28;1331;-66
2022/02/28 12:22:52;;;;;;;;;;;;;;;16.76;40.97;101066.25;5050642;28;1237;-66
2022/02/28 12:25:36;;;;;;;;;;;;;;;17.02;40.27;101058.13;5055945;28;1915;-64
2022/02/28 12:28:20;;;;;;;;;;;;;;;16.51;41.55;101063.34;5052821;28;1330;-64
2022/02/28 12:30:52;;;;;;;;;;;;;;;16.21;41.76;101068.38;5056696;28;1231;-67
2022/02/28 12:33:19;;;;;;;;;;;;;;;16.28;41.68;101067.34;5056224;28;1111;-66
2022/02/28 12:35:52;;;;;;;;;;;;;;;16.31;42.21;101092.31;5053210;28;1354;-67
2022/02/28 12:38:17;;;;;;;;;;;;;;;16.90;40.76;101071.25;5057545;28;1489;-66
2022/02/28 12:40:48;;;;;;;;;;;;;;;17.17;40.00;101073.03;5054081;28;1235;-67
2022/02/28 12:43:14;;;;;;;;;;;;;;;16.39;41.13;101083.59;5057461;28;1281;-65
2022/02/28 12:45:40;;;;;;;;;;;;;;;16.13;41.32;101073.53;5061325;28;1910;-65
2022/02/28 12:48:05;;;;;;;;;;;;;;;16.20;41.94;101064.00;5072122;28;785;-70
2022/02/28 12:50:31;;;;;;;;;;;;;;;16.39;42.13;101067.13;5068748;28;1230;-68
2022/02/28 12:52:56;;;;;;;;;;;;;;;16.49;42.04;101071.84;5059023;28;1544;-69
2022/02/28 12:55:22;;;;;;;;;;;;;;;16.36;42.21;101064.91;5056229;28;1614;-67
2022/02/28 12:57:47;;;;;;;;;;;;;;;16.54;41.65;101062.84;5056194;28;1231;-69